Accueil
METAR-TAF:

METAR-TAF

Aéroports :

Imphāl, Inde

latitude: 24-45-36N, longitude: 93-53-48E, altitude: 774 m

Observation

Le bulletin a été fait il y a 11 heures et 8 minutes, à 12:00 UTC
Vent calme
Température 11°C
Humidité 87%
Pression 1018 hPa
Visibilité: 3000 m
Nuages épars à une hauteur de 800 ft
Nuages épars à une hauteur de 1800 ft
Nuages fragmentés à une hauteur de 9000 ft
pluie faible

METAR: VEIM 261200Z 00000KT 3000 -RA SCT008 SCT018 BKN090 11/09 Q1018 NOSIG

Heure: 04:38 (23:08 UTC)

Prévision

Le bulletin a été fait il y a 6 heures et 8 minutes, à 17:00 UTC
Prévision valable du 26 à 18 UTC au 27 à 03 UTC
Vent kt de nord
Visibilité: 2000 m
Quelques nuages à une hauteur de 1000 ft
Nuages épars à une hauteur de 1800 ft
Nuages fragmentés à une hauteur de 9000 ft
pluie faible, brume

TAF: VEIM 261700Z 2618/2703 00000KT 2000 -RA BR FEW010 SCT018 BKN090

Observations et prévisions météorologiques de plus de 4000 aéroports (messages METAR et TAF).

Les stations disponibles sont représentées par des disques jaunes et rouges sur la carte.

Passer la souris dessus pour voir le nom de la station.

Cliquer dessus pour voir les observations et prévisions météorologiques.

Pour changer de carte: cliquez sur les boutons verts avec une croix noire pour zoomer, sur le bouton vert avec un tiret pour effectuer un zoom arrière, ou sur les flèches vertes pour les cartes adjacentes.


METAR-TAF: